sensor_id;sensor_type;location;lat;lon;timestamp;P1;durP1;ratioP1;P2;durP2;ratioP2
4202;SDS011;2115;51.038;7.006;2023-04-25T00:00:56;17.45;;;5.25;;
4202;SDS011;2115;51.038;7.006;2023-04-25T00:03:21;9.20;;;4.27;;
4202;SDS011;2115;51.038;7.006;2023-04-25T00:05:47;22.47;;;5.50;;
4202;SDS011;2115;51.038;7.006;2023-04-25T00:08:12;12.17;;;4.20;;
4202;SDS011;2115;51.038;7.006;2023-04-25T00:10:38;17.87;;;4.97;;
4202;SDS011;2115;51.038;7.006;2023-04-25T00:13:03;12.53;;;4.53;;
4202;SDS011;2115;51.038;7.006;2023-04-25T00:15:29;10.30;;;4.70;;
4202;SDS011;2115;51.038;7.006;2023-04-25T00:17:57;19.57;;;4.80;;
4202;SDS011;2115;51.038;7.006;2023-04-25T00:20:24;11.10;;;4.30;;
4202;SDS011;2115;51.038;7.006;2023-04-25T00:22:50;11.97;;;4.80;;
4202;SDS011;2115;51.038;7.006;2023-04-25T00:25:15;13.10;;;6.07;;
4202;SDS011;2115;51.038;7.006;2023-04-25T00:27:41;11.40;;;5.30;;
4202;SDS011;2115;51.038;7.006;2023-04-25T00:30:08;13.10;;;4.20;;
4202;SDS011;2115;51.038;7.006;2023-04-25T00:32:34;16.53;;;5.80;;
4202;SDS011;2115;51.038;7.006;2023-04-25T00:35:01;16.90;;;5.50;;
4202;SDS011;2115;51.038;7.006;2023-04-25T00:37:27;12.10;;;4.70;;
4202;SDS011;2115;51.038;7.006;2023-04-25T00:39:52;14.27;;;4.43;;
4202;SDS011;2115;51.038;7.006;2023-04-25T00:42:19;16.97;;;4.77;;
4202;SDS011;2115;51.038;7.006;2023-04-25T00:44:45;14.97;;;5.20;;
4202;SDS011;2115;51.038;7.006;2023-04-25T00:47:11;14.00;;;5.63;;
4202;SDS011;2115;51.038;7.006;2023-04-25T00:49:37;14.27;;;5.00;;
4202;SDS011;2115;51.038;7.006;2023-04-25T00:52:02;16.10;;;5.47;;
4202;SDS011;2115;51.038;7.006;2023-04-25T00:54:28;23.77;;;5.90;;
4202;SDS011;2115;51.038;7.006;2023-04-25T00:56:55;11.40;;;5.53;;
4202;SDS011;2115;51.038;7.006;2023-04-25T00:59:20;16.37;;;5.33;;
4202;SDS011;2115;51.038;7.006;2023-04-25T01:01:45;14.93;;;5.27;;
4202;SDS011;2115;51.038;7.006;2023-04-25T01:04:11;21.23;;;4.47;;
4202;SDS011;2115;51.038;7.006;2023-04-25T01:06:36;37.50;;;5.33;;
4202;SDS011;2115;51.038;7.006;2023-04-25T01:09:02;9.57;;;4.60;;
4202;SDS011;2115;51.038;7.006;2023-04-25T01:11:27;16.67;;;4.83;;
4202;SDS011;2115;51.038;7.006;2023-04-25T01:13:53;14.70;;;5.57;;
4202;SDS011;2115;51.038;7.006;2023-04-25T01:16:19;21.73;;;5.20;;
4202;SDS011;2115;51.038;7.006;2023-04-25T01:18:45;11.53;;;4.87;;
4202;SDS011;2115;51.038;7.006;2023-04-25T01:21:11;18.00;;;5.80;;
4202;SDS011;2115;51.038;7.006;2023-04-25T01:23:38;18.80;;;4.97;;
4202;SDS011;2115;51.038;7.006;2023-04-25T01:26:04;24.03;;;5.37;;
4202;SDS011;2115;51.038;7.006;2023-04-25T01:28:31;11.23;;;3.80;;
4202;SDS011;2115;51.038;7.006;2023-04-25T01:30:58;16.47;;;4.20;;
4202;SDS011;2115;51.038;7.006;2023-04-25T01:33:24;12.23;;;4.70;;
4202;SDS011;2115;51.038;7.006;2023-04-25T01:35:49;11.50;;;4.30;;
4202;SDS011;2115;51.038;7.006;2023-04-25T01:38:15;8.33;;;3.57;;
4202;SDS011;2115;51.038;7.006;2023-04-25T01:40:41;15.20;;;3.83;;
4202;SDS011;2115;51.038;7.006;2023-04-25T01:43:07;7.80;;;3.20;;
4202;SDS011;2115;51.038;7.006;2023-04-25T01:45:36;12.03;;;4.10;;
4202;SDS011;2115;51.038;7.006;2023-04-25T01:48:04;9.57;;;3.63;;
4202;SDS011;2115;51.038;7.006;2023-04-25T01:50:30;11.53;;;4.10;;
4202;SDS011;2115;51.038;7.006;2023-04-25T01:52:55;14.47;;;3.90;;
4202;SDS011;2115;51.038;7.006;2023-04-25T01:55:21;13.50;;;4.00;;
4202;SDS011;2115;51.038;7.006;2023-04-25T01:57:46;14.80;;;3.77;;
4202;SDS011;2115;51.038;7.006;2023-04-25T02:00:12;10.73;;;3.77;;
4202;SDS011;2115;51.038;7.006;2023-04-25T02:02:38;14.93;;;4.07;;
4202;SDS011;2115;51.038;7.006;2023-04-25T02:05:03;14.17;;;4.13;;
4202;SDS011;2115;51.038;7.006;2023-04-25T02:07:29;15.00;;;3.57;;
4202;SDS011;2115;51.038;7.006;2023-04-25T02:09:54;11.60;;;3.43;;
4202;SDS011;2115;51.038;7.006;2023-04-25T02:12:19;11.60;;;3.70;;
4202;SDS011;2115;51.038;7.006;2023-04-25T02:14:45;14.47;;;3.70;;
4202;SDS011;2115;51.038;7.006;2023-04-25T02:17:10;17.93;;;4.20;;
4202;SDS011;2115;51.038;7.006;2023-04-25T02:19:37;7.50;;;3.50;;
4202;SDS011;2115;51.038;7.006;2023-04-25T02:22:03;9.97;;;3.20;;
4202;SDS011;2115;51.038;7.006;2023-04-25T02:24:28;11.83;;;3.50;;
4202;SDS011;2115;51.038;7.006;2023-04-25T02:26:54;13.30;;;3.53;;
4202;SDS011;2115;51.038;7.006;2023-04-25T02:29:20;18.27;;;3.63;;
4202;SDS011;2115;51.038;7.006;2023-04-25T02:31:46;11.70;;;3.70;;
4202;SDS011;2115;51.038;7.006;2023-04-25T02:34:11;17.20;;;4.00;;
4202;SDS011;2115;51.038;7.006;2023-04-25T02:36:37;13.83;;;3.77;;
4202;SDS011;2115;51.038;7.006;2023-04-25T02:39:02;10.83;;;3.37;;
4202;SDS011;2115;51.038;7.006;2023-04-25T02:41:28;12.87;;;3.23;;
4202;SDS011;2115;51.038;7.006;2023-04-25T02:43:53;9.37;;;3.40;;
4202;SDS011;2115;51.038;7.006;2023-04-25T02:46:19;10.03;;;3.13;;
4202;SDS011;2115;51.038;7.006;2023-04-25T02:48:44;13.43;;;3.10;;
4202;SDS011;2115;51.038;7.006;2023-04-25T02:51:09;9.63;;;2.97;;
4202;SDS011;2115;51.038;7.006;2023-04-25T02:53:35;13.27;;;3.47;;
4202;SDS011;2115;51.038;7.006;2023-04-25T02:56:00;17.33;;;3.40;;
4202;SDS011;2115;51.038;7.006;2023-04-25T02:58:26;8.10;;;3.00;;
4202;SDS011;2115;51.038;7.006;2023-04-25T03:00:51;8.00;;;3.37;;
4202;SDS011;2115;51.038;7.006;2023-04-25T03:03:17;9.33;;;2.97;;
4202;SDS011;2115;51.038;7.006;2023-04-25T03:05:43;19.70;;;4.40;;
4202;SDS011;2115;51.038;7.006;2023-04-25T03:08:09;7.13;;;3.00;;
4202;SDS011;2115;51.038;7.006;2023-04-25T03:10:34;15.63;;;3.30;;
4202;SDS011;2115;51.038;7.006;2023-04-25T03:13:00;14.57;;;4.07;;
4202;SDS011;2115;51.038;7.006;2023-04-25T03:15:25;4.50;;;2.60;;
4202;SDS011;2115;51.038;7.006;2023-04-25T03:17:51;8.73;;;3.00;;
4202;SDS011;2115;51.038;7.006;2023-04-25T03:20:17;8.33;;;2.90;;
4202;SDS011;2115;51.038;7.006;2023-04-25T03:22:42;12.80;;;3.20;;
4202;SDS011;2115;51.038;7.006;2023-04-25T03:25:07;10.50;;;2.37;;
4202;SDS011;2115;51.038;7.006;2023-04-25T03:27:33;11.97;;;3.37;;
4202;SDS011;2115;51.038;7.006;2023-04-25T03:29:58;8.10;;;3.20;;
4202;SDS011;2115;51.038;7.006;2023-04-25T03:32:24;6.43;;;3.30;;
4202;SDS011;2115;51.038;7.006;2023-04-25T03:34:49;6.77;;;3.00;;
4202;SDS011;2115;51.038;7.006;2023-04-25T03:37:15;7.70;;;3.50;;
4202;SDS011;2115;51.038;7.006;2023-04-25T03:39:41;9.33;;;3.23;;
4202;SDS011;2115;51.038;7.006;2023-04-25T03:42:06;6.50;;;2.77;;
4202;SDS011;2115;51.038;7.006;2023-04-25T03:44:31;6.97;;;3.20;;
4202;SDS011;2115;51.038;7.006;2023-04-25T03:46:57;12.80;;;3.27;;
4202;SDS011;2115;51.038;7.006;2023-04-25T03:49:22;10.90;;;3.83;;
4202;SDS011;2115;51.038;7.006;2023-04-25T03:51:47;12.03;;;3.13;;
4202;SDS011;2115;51.038;7.006;2023-04-25T03:54:13;6.80;;;3.10;;
4202;SDS011;2115;51.038;7.006;2023-04-25T03:56:38;6.43;;;2.80;;
4202;SDS011;2115;51.038;7.006;2023-04-25T03:59:03;7.73;;;2.80;;
4202;SDS011;2115;51.038;7.006;2023-04-25T04:01:29;6.50;;;3.10;;
4202;SDS011;2115;51.038;7.006;2023-04-25T04:03:54;9.33;;;4.07;;
4202;SDS011;2115;51.038;7.006;2023-04-25T04:06:20;8.33;;;3.63;;
4202;SDS011;2115;51.038;7.006;2023-04-25T04:08:45;10.10;;;3.10;;
4202;SDS011;2115;51.038;7.006;2023-04-25T04:11:11;9.50;;;2.97;;
4202;SDS011;2115;51.038;7.006;2023-04-25T04:13:37;7.07;;;3.40;;
4202;SDS011;2115;51.038;7.006;2023-04-25T04:16:02;8.57;;;3.33;;
4202;SDS011;2115;51.038;7.006;2023-04-25T04:18:29;8.57;;;4.10;;
4202;SDS011;2115;51.038;7.006;2023-04-25T04:20:54;8.90;;;3.73;;
4202;SDS011;2115;51.038;7.006;2023-04-25T04:23:20;14.03;;;3.77;;
4202;SDS011;2115;51.038;7.006;2023-04-25T04:25:47;11.70;;;4.40;;
4202;SDS011;2115;51.038;7.006;2023-04-25T04:28:13;15.40;;;3.90;;
4202;SDS011;2115;51.038;7.006;2023-04-25T04:30:38;11.30;;;3.87;;
4202;SDS011;2115;51.038;7.006;2023-04-25T04:33:04;9.57;;;3.53;;
4202;SDS011;2115;51.038;7.006;2023-04-25T04:35:29;17.63;;;5.90;;
4202;SDS011;2115;51.038;7.006;2023-04-25T04:37:55;14.80;;;4.50;;
4202;SDS011;2115;51.038;7.006;2023-04-25T04:40:21;12.37;;;4.73;;
4202;SDS011;2115;51.038;7.006;2023-04-25T04:42:47;13.37;;;3.93;;
4202;SDS011;2115;51.038;7.006;2023-04-25T04:45:13;23.23;;;4.87;;
4202;SDS011;2115;51.038;7.006;2023-04-25T04:47:38;14.27;;;4.60;;
4202;SDS011;2115;51.038;7.006;2023-04-25T04:50:05;18.90;;;3.70;;
4202;SDS011;2115;51.038;7.006;2023-04-25T04:52:33;13.23;;;4.50;;
4202;SDS011;2115;51.038;7.006;2023-04-25T04:54:59;10.67;;;4.17;;
4202;SDS011;2115;51.038;7.006;2023-04-25T04:57:25;21.57;;;3.97;;
4202;SDS011;2115;51.038;7.006;2023-04-25T04:59:50;9.70;;;3.97;;
4202;SDS011;2115;51.038;7.006;2023-04-25T05:02:16;19.80;;;5.03;;
4202;SDS011;2115;51.038;7.006;2023-04-25T05:04:41;12.30;;;4.37;;
4202;SDS011;2115;51.038;7.006;2023-04-25T05:07:07;15.87;;;4.30;;
4202;SDS011;2115;51.038;7.006;2023-04-25T05:09:32;10.57;;;4.30;;
4202;SDS011;2115;51.038;7.006;2023-04-25T05:11:57;18.60;;;5.03;;
4202;SDS011;2115;51.038;7.006;2023-04-25T05:14:25;19.50;;;4.20;;
4202;SDS011;2115;51.038;7.006;2023-04-25T05:16:51;13.87;;;4.73;;
4202;SDS011;2115;51.038;7.006;2023-04-25T05:19:16;14.07;;;4.13;;
4202;SDS011;2115;51.038;7.006;2023-04-25T05:21:42;19.43;;;4.23;;
4202;SDS011;2115;51.038;7.006;2023-04-25T05:24:08;15.03;;;4.20;;
4202;SDS011;2115;51.038;7.006;2023-04-25T05:26:33;16.07;;;4.60;;
4202;SDS011;2115;51.038;7.006;2023-04-25T05:28:58;20.00;;;5.20;;
4202;SDS011;2115;51.038;7.006;2023-04-25T05:31:24;10.83;;;3.50;;
4202;SDS011;2115;51.038;7.006;2023-04-25T05:33:50;19.13;;;4.07;;
4202;SDS011;2115;51.038;7.006;2023-04-25T05:36:15;31.40;;;5.77;;
4202;SDS011;2115;51.038;7.006;2023-04-25T05:38:40;22.30;;;6.07;;
4202;SDS011;2115;51.038;7.006;2023-04-25T05:41:06;21.60;;;5.90;;
4202;SDS011;2115;51.038;7.006;2023-04-25T05:43:32;16.10;;;4.77;;
4202;SDS011;2115;51.038;7.006;2023-04-25T05:45:58;18.23;;;4.50;;
4202;SDS011;2115;51.038;7.006;2023-04-25T05:48:23;21.10;;;4.50;;
4202;SDS011;2115;51.038;7.006;2023-04-25T05:50:49;14.67;;;4.57;;
4202;SDS011;2115;51.038;7.006;2023-04-25T05:53:14;22.33;;;4.97;;
4202;SDS011;2115;51.038;7.006;2023-04-25T05:55:40;24.00;;;4.40;;
4202;SDS011;2115;51.038;7.006;2023-04-25T05:58:05;23.37;;;5.40;;
4202;SDS011;2115;51.038;7.006;2023-04-25T06:00:32;28.57;;;4.93;;
4202;SDS011;2115;51.038;7.006;2023-04-25T06:02:57;17.53;;;4.33;;
4202;SDS011;2115;51.038;7.006;2023-04-25T06:05:22;23.13;;;4.13;;
4202;SDS011;2115;51.038;7.006;2023-04-25T06:07:48;12.20;;;3.20;;
4202;SDS011;2115;51.038;7.006;2023-04-25T06:10:13;15.10;;;4.50;;
4202;SDS011;2115;51.038;7.006;2023-04-25T06:12:40;23.03;;;4.37;;
4202;SDS011;2115;51.038;7.006;2023-04-25T06:15:05;17.50;;;3.93;;
4202;SDS011;2115;51.038;7.006;2023-04-25T06:17:32;20.63;;;4.57;;
4202;SDS011;2115;51.038;7.006;2023-04-25T06:19:58;16.57;;;3.63;;
4202;SDS011;2115;51.038;7.006;2023-04-25T06:22:23;14.93;;;3.07;;
4202;SDS011;2115;51.038;7.006;2023-04-25T06:24:48;11.73;;;3.60;;
4202;SDS011;2115;51.038;7.006;2023-04-25T06:27:14;18.20;;;3.83;;
4202;SDS011;2115;51.038;7.006;2023-04-25T06:29:39;17.00;;;2.90;;
4202;SDS011;2115;51.038;7.006;2023-04-25T06:32:05;29.73;;;4.53;;
4202;SDS011;2115;51.038;7.006;2023-04-25T06:34:30;13.63;;;3.67;;
4202;SDS011;2115;51.038;7.006;2023-04-25T06:36:55;18.40;;;3.50;;
4202;SDS011;2115;51.038;7.006;2023-04-25T06:39:21;19.57;;;2.97;;
4202;SDS011;2115;51.038;7.006;2023-04-25T06:41:48;19.43;;;3.70;;
4202;SDS011;2115;51.038;7.006;2023-04-25T06:44:13;23.33;;;4.17;;
4202;SDS011;2115;51.038;7.006;2023-04-25T06:46:40;16.17;;;3.87;;
4202;SDS011;2115;51.038;7.006;2023-04-25T06:49:05;15.87;;;3.20;;
4202;SDS011;2115;51.038;7.006;2023-04-25T06:51:32;15.17;;;3.93;;
4202;SDS011;2115;51.038;7.006;2023-04-25T06:53:57;14.77;;;3.33;;
4202;SDS011;2115;51.038;7.006;2023-04-25T06:56:24;9.87;;;2.93;;
4202;SDS011;2115;51.038;7.006;2023-04-25T06:58:49;19.23;;;3.67;;
4202;SDS011;2115;51.038;7.006;2023-04-25T07:01:15;13.93;;;3.50;;
4202;SDS011;2115;51.038;7.006;2023-04-25T07:03:40;23.93;;;3.80;;
4202;SDS011;2115;51.038;7.006;2023-04-25T07:06:06;14.20;;;3.13;;
4202;SDS011;2115;51.038;7.006;2023-04-25T07:08:31;19.70;;;3.10;;
4202;SDS011;2115;51.038;7.006;2023-04-25T07:10:57;25.37;;;4.30;;
4202;SDS011;2115;51.038;7.006;2023-04-25T07:13:22;19.97;;;4.43;;
4202;SDS011;2115;51.038;7.006;2023-04-25T07:15:47;19.40;;;2.90;;
4202;SDS011;2115;51.038;7.006;2023-04-25T07:18:13;17.00;;;4.33;;
4202;SDS011;2115;51.038;7.006;2023-04-25T07:20:39;22.40;;;5.03;;
4202;SDS011;2115;51.038;7.006;2023-04-25T07:23:04;18.13;;;4.00;;
4202;SDS011;2115;51.038;7.006;2023-04-25T07:25:30;18.90;;;4.27;;
4202;SDS011;2115;51.038;7.006;2023-04-25T07:27:55;32.60;;;3.63;;
4202;SDS011;2115;51.038;7.006;2023-04-25T07:30:21;24.10;;;4.60;;
4202;SDS011;2115;51.038;7.006;2023-04-25T07:32:47;14.33;;;3.90;;
4202;SDS011;2115;51.038;7.006;2023-04-25T07:35:13;14.67;;;3.57;;
4202;SDS011;2115;51.038;7.006;2023-04-25T07:37:38;13.37;;;3.20;;
4202;SDS011;2115;51.038;7.006;2023-04-25T07:40:04;14.53;;;3.50;;
4202;SDS011;2115;51.038;7.006;2023-04-25T07:42:34;12.63;;;4.90;;
4202;SDS011;2115;51.038;7.006;2023-04-25T07:44:59;16.43;;;4.10;;
4202;SDS011;2115;51.038;7.006;2023-04-25T07:47:25;8.80;;;3.53;;
4202;SDS011;2115;51.038;7.006;2023-04-25T07:49:51;10.47;;;4.20;;
4202;SDS011;2115;51.038;7.006;2023-04-25T07:52:16;25.37;;;3.33;;
4202;SDS011;2115;51.038;7.006;2023-04-25T07:54:42;17.40;;;4.63;;
4202;SDS011;2115;51.038;7.006;2023-04-25T07:57:07;10.17;;;3.53;;
4202;SDS011;2115;51.038;7.006;2023-04-25T07:59:33;15.37;;;3.47;;
4202;SDS011;2115;51.038;7.006;2023-04-25T08:01:58;10.70;;;3.10;;
4202;SDS011;2115;51.038;7.006;2023-04-25T08:04:24;20.20;;;3.90;;
4202;SDS011;2115;51.038;7.006;2023-04-25T08:06:50;12.80;;;3.30;;
4202;SDS011;2115;51.038;7.006;2023-04-25T08:09:16;15.07;;;3.90;;
4202;SDS011;2115;51.038;7.006;2023-04-25T08:11:42;13.45;;;3.75;;
4202;SDS011;2115;51.038;7.006;2023-04-25T08:14:07;21.07;;;4.43;;
4202;SDS011;2115;51.038;7.006;2023-04-25T08:16:33;12.60;;;3.70;;
4202;SDS011;2115;51.038;7.006;2023-04-25T08:18:59;14.90;;;4.05;;
4202;SDS011;2115;51.038;7.006;2023-04-25T08:21:25;25.20;;;4.23;;
4202;SDS011;2115;51.038;7.006;2023-04-25T08:23:51;13.40;;;3.17;;
4202;SDS011;2115;51.038;7.006;2023-04-25T08:26:17;21.93;;;5.03;;
4202;SDS011;2115;51.038;7.006;2023-04-25T08:28:42;11.83;;;3.30;;
4202;SDS011;2115;51.038;7.006;2023-04-25T08:31:08;13.60;;;3.90;;
4202;SDS011;2115;51.038;7.006;2023-04-25T08:33:33;12.80;;;3.70;;
4202;SDS011;2115;51.038;7.006;2023-04-25T08:35:58;5.43;;;2.57;;
4202;SDS011;2115;51.038;7.006;2023-04-25T08:38:24;10.10;;;3.00;;
4202;SDS011;2115;51.038;7.006;2023-04-25T08:40:50;11.33;;;3.30;;
4202;SDS011;2115;51.038;7.006;2023-04-25T08:43:19;14.67;;;3.43;;
4202;SDS011;2115;51.038;7.006;2023-04-25T08:45:45;13.23;;;2.70;;
4202;SDS011;2115;51.038;7.006;2023-04-25T08:48:14;11.83;;;2.80;;
4202;SDS011;2115;51.038;7.006;2023-04-25T08:50:43;18.17;;;2.67;;
4202;SDS011;2115;51.038;7.006;2023-04-25T08:53:21;12.30;;;2.50;;
4202;SDS011;2115;51.038;7.006;2023-04-25T08:55:47;14.37;;;3.00;;
4202;SDS011;2115;51.038;7.006;2023-04-25T08:58:13;13.67;;;2.80;;
4202;SDS011;2115;51.038;7.006;2023-04-25T09:00:39;13.13;;;3.30;;
4202;SDS011;2115;51.038;7.006;2023-04-25T09:03:05;19.13;;;3.77;;
4202;SDS011;2115;51.038;7.006;2023-04-25T09:05:34;17.33;;;3.07;;
4202;SDS011;2115;51.038;7.006;2023-04-25T09:08:00;16.83;;;2.67;;
4202;SDS011;2115;51.038;7.006;2023-04-25T09:10:26;6.03;;;2.37;;
4202;SDS011;2115;51.038;7.006;2023-04-25T09:13:08;10.13;;;2.27;;
4202;SDS011;2115;51.038;7.006;2023-04-25T09:18:33;16.90;;;2.90;;
4202;SDS011;2115;51.038;7.006;2023-04-25T09:21:06;13.33;;;2.47;;
4202;SDS011;2115;51.038;7.006;2023-04-25T09:23:38;10.67;;;2.00;;
4202;SDS011;2115;51.038;7.006;2023-04-25T09:26:13;14.53;;;2.03;;
4202;SDS011;2115;51.038;7.006;2023-04-25T09:28:39;9.17;;;2.70;;
4202;SDS011;2115;51.038;7.006;2023-04-25T09:31:05;11.40;;;3.27;;
4202;SDS011;2115;51.038;7.006;2023-04-25T09:33:31;12.53;;;2.60;;
4202;SDS011;2115;51.038;7.006;2023-04-25T09:36:15;8.70;;;2.27;;
4202;SDS011;2115;51.038;7.006;2023-04-25T09:38:45;6.53;;;2.60;;
4202;SDS011;2115;51.038;7.006;2023-04-25T09:41:11;12.75;;;2.30;;
4202;SDS011;2115;51.038;7.006;2023-04-25T09:43:37;13.20;;;2.63;;
4202;SDS011;2115;51.038;7.006;2023-04-25T09:46:04;8.47;;;2.30;;
4202;SDS011;2115;51.038;7.006;2023-04-25T09:48:36;12.00;;;1.90;;
4202;SDS011;2115;51.038;7.006;2023-04-25T09:51:12;13.03;;;2.93;;
4202;SDS011;2115;51.038;7.006;2023-04-25T09:53:42;21.07;;;3.13;;
4202;SDS011;2115;51.038;7.006;2023-04-25T09:56:09;7.77;;;2.23;;
4202;SDS011;2115;51.038;7.006;2023-04-25T09:58:36;11.17;;;1.97;;
4202;SDS011;2115;51.038;7.006;2023-04-25T10:01:03;12.93;;;2.03;;
4202;SDS011;2115;51.038;7.006;2023-04-25T10:03:31;13.00;;;2.67;;
4202;SDS011;2115;51.038;7.006;2023-04-25T10:06:01;5.30;;;2.20;;
4202;SDS011;2115;51.038;7.006;2023-04-25T10:08:34;5.83;;;1.73;;
4202;SDS011;2115;51.038;7.006;2023-04-25T10:11:01;15.97;;;2.60;;
4202;SDS011;2115;51.038;7.006;2023-04-25T10:13:31;12.10;;;1.70;;
4202;SDS011;2115;51.038;7.006;2023-04-25T10:15:58;15.63;;;3.10;;
4202;SDS011;2115;51.038;7.006;2023-04-25T10:18:28;6.03;;;1.83;;
4202;SDS011;2115;51.038;7.006;2023-04-25T10:20:54;6.97;;;2.03;;
4202;SDS011;2115;51.038;7.006;2023-04-25T10:23:20;7.13;;;1.40;;
4202;SDS011;2115;51.038;7.006;2023-04-25T10:25:46;11.47;;;2.70;;
4202;SDS011;2115;51.038;7.006;2023-04-25T10:28:11;6.07;;;2.40;;
4202;SDS011;2115;51.038;7.006;2023-04-25T10:30:36;10.50;;;1.70;;
4202;SDS011;2115;51.038;7.006;2023-04-25T10:33:02;5.33;;;1.90;;
4202;SDS011;2115;51.038;7.006;2023-04-25T10:35:41;9.23;;;2.33;;
4202;SDS011;2115;51.038;7.006;2023-04-25T10:38:10;9.47;;;1.60;;
4202;SDS011;2115;51.038;7.006;2023-04-25T10:40:37;12.30;;;2.70;;
4202;SDS011;2115;51.038;7.006;2023-04-25T10:45:56;8.60;;;1.93;;
4202;SDS011;2115;51.038;7.006;2023-04-25T10:48:25;8.33;;;2.23;;
4202;SDS011;2115;51.038;7.006;2023-04-25T10:51:07;9.13;;;2.00;;
4202;SDS011;2115;51.038;7.006;2023-04-25T10:53:36;8.27;;;1.90;;
4202;SDS011;2115;51.038;7.006;2023-04-25T10:56:18;4.27;;;1.57;;
4202;SDS011;2115;51.038;7.006;2023-04-25T10:58:44;8.73;;;1.67;;
4202;SDS011;2115;51.038;7.006;2023-04-25T11:01:15;7.60;;;1.80;;
4202;SDS011;2115;51.038;7.006;2023-04-25T11:03:41;8.63;;;2.07;;
4202;SDS011;2115;51.038;7.006;2023-04-25T11:06:11;7.83;;;1.87;;
4202;SDS011;2115;51.038;7.006;2023-04-25T11:08:48;6.00;;;1.57;;
4202;SDS011;2115;51.038;7.006;2023-04-25T11:11:18;5.10;;;1.93;;
4202;SDS011;2115;51.038;7.006;2023-04-25T11:13:44;7.63;;;1.80;;
4202;SDS011;2115;51.038;7.006;2023-04-25T11:16:13;15.43;;;2.60;;
4202;SDS011;2115;51.038;7.006;2023-04-25T11:18:40;13.07;;;2.30;;
4202;SDS011;2115;51.038;7.006;2023-04-25T11:21:09;17.60;;;1.90;;
4202;SDS011;2115;51.038;7.006;2023-04-25T11:23:36;8.17;;;2.47;;
4202;SDS011;2115;51.038;7.006;2023-04-25T11:26:02;13.13;;;2.80;;
4202;SDS011;2115;51.038;7.006;2023-04-25T11:28:29;5.40;;;1.87;;
4202;SDS011;2115;51.038;7.006;2023-04-25T11:30:54;7.10;;;2.20;;
4202;SDS011;2115;51.038;7.006;2023-04-25T11:33:23;14.47;;;1.33;;
4202;SDS011;2115;51.038;7.006;2023-04-25T11:35:49;8.37;;;2.03;;
4202;SDS011;2115;51.038;7.006;2023-04-25T11:38:15;5.83;;;1.63;;
4202;SDS011;2115;51.038;7.006;2023-04-25T11:40:40;5.03;;;1.97;;
4202;SDS011;2115;51.038;7.006;2023-04-25T11:43:06;5.67;;;1.30;;
4202;SDS011;2115;51.038;7.006;2023-04-25T11:45:32;3.50;;;1.20;;
4202;SDS011;2115;51.038;7.006;2023-04-25T11:47:57;7.77;;;2.00;;
4202;SDS011;2115;51.038;7.006;2023-04-25T11:50:23;4.43;;;1.50;;
4202;SDS011;2115;51.038;7.006;2023-04-25T11:52:48;7.60;;;2.23;;
4202;SDS011;2115;51.038;7.006;2023-04-25T11:55:16;9.30;;;2.03;;
4202;SDS011;2115;51.038;7.006;2023-04-25T11:57:42;3.30;;;1.07;;
4202;SDS011;2115;51.038;7.006;2023-04-25T12:00:13;5.77;;;1.70;;
4202;SDS011;2115;51.038;7.006;2023-04-25T12:02:42;11.23;;;2.00;;
4202;SDS011;2115;51.038;7.006;2023-04-25T12:05:11;9.00;;;1.50;;
4202;SDS011;2115;51.038;7.006;2023-04-25T12:07:37;7.70;;;1.70;;
4202;SDS011;2115;51.038;7.006;2023-04-25T12:12:36;6.87;;;1.30;;
4202;SDS011;2115;51.038;7.006;2023-04-25T12:15:09;4.70;;;1.57;;
4202;SDS011;2115;51.038;7.006;2023-04-25T12:17:36;6.93;;;1.87;;
4202;SDS011;2115;51.038;7.006;2023-04-25T12:20:10;7.03;;;1.73;;
4202;SDS011;2115;51.038;7.006;2023-04-25T12:22:40;6.87;;;1.93;;
4202;SDS011;2115;51.038;7.006;2023-04-25T12:25:09;8.40;;;1.70;;
4202;SDS011;2115;51.038;7.006;2023-04-25T12:27:38;5.00;;;1.70;;
4202;SDS011;2115;51.038;7.006;2023-04-25T12:30:06;4.33;;;1.30;;
4202;SDS011;2115;51.038;7.006;2023-04-25T12:32:32;10.97;;;1.60;;
4202;SDS011;2115;51.038;7.006;2023-04-25T12:34:59;8.20;;;1.60;;
4202;SDS011;2115;51.038;7.006;2023-04-25T12:37:24;12.20;;;2.17;;
4202;SDS011;2115;51.038;7.006;2023-04-25T12:39:50;18.83;;;2.50;;
4202;SDS011;2115;51.038;7.006;2023-04-25T12:42:15;15.40;;;2.50;;
4202;SDS011;2115;51.038;7.006;2023-04-25T12:44:41;5.93;;;1.40;;
4202;SDS011;2115;51.038;7.006;2023-04-25T12:47:06;8.20;;;1.57;;
4202;SDS011;2115;51.038;7.006;2023-04-25T12:49:32;10.33;;;2.13;;
4202;SDS011;2115;51.038;7.006;2023-04-25T12:51:57;5.03;;;1.70;;
4202;SDS011;2115;51.038;7.006;2023-04-25T12:54:23;5.73;;;1.70;;
4202;SDS011;2115;51.038;7.006;2023-04-25T12:56:49;10.27;;;2.33;;
4202;SDS011;2115;51.038;7.006;2023-04-25T12:59:15;13.77;;;2.60;;
4202;SDS011;2115;51.038;7.006;2023-04-25T13:01:40;10.97;;;1.70;;
4202;SDS011;2115;51.038;7.006;2023-04-25T13:04:06;5.93;;;1.80;;
4202;SDS011;2115;51.038;7.006;2023-04-25T13:06:31;5.40;;;1.10;;
4202;SDS011;2115;51.038;7.006;2023-04-25T13:08:57;6.60;;;2.07;;
4202;SDS011;2115;51.038;7.006;2023-04-25T13:11:22;4.90;;;1.67;;
4202;SDS011;2115;51.038;7.006;2023-04-25T13:13:47;3.63;;;1.60;;
4202;SDS011;2115;51.038;7.006;2023-04-25T13:16:13;6.97;;;2.20;;
4202;SDS011;2115;51.038;7.006;2023-04-25T13:18:39;8.57;;;2.00;;
4202;SDS011;2115;51.038;7.006;2023-04-25T13:21:05;8.00;;;1.90;;
4202;SDS011;2115;51.038;7.006;2023-04-25T13:23:30;5.00;;;1.93;;
4202;SDS011;2115;51.038;7.006;2023-04-25T13:25:56;11.60;;;2.47;;
4202;SDS011;2115;51.038;7.006;2023-04-25T13:28:25;10.37;;;3.13;;
4202;SDS011;2115;51.038;7.006;2023-04-25T13:30:51;9.20;;;2.37;;
4202;SDS011;2115;51.038;7.006;2023-04-25T13:33:16;7.93;;;2.50;;
4202;SDS011;2115;51.038;7.006;2023-04-25T13:35:42;8.80;;;2.70;;
4202;SDS011;2115;51.038;7.006;2023-04-25T13:38:08;8.37;;;2.37;;
4202;SDS011;2115;51.038;7.006;2023-04-25T13:40:34;14.17;;;2.93;;
4202;SDS011;2115;51.038;7.006;2023-04-25T13:42:59;8.57;;;2.00;;
4202;SDS011;2115;51.038;7.006;2023-04-25T13:45:25;8.60;;;3.30;;
4202;SDS011;2115;51.038;7.006;2023-04-25T13:47:50;10.30;;;2.83;;
4202;SDS011;2115;51.038;7.006;2023-04-25T13:50:16;12.23;;;2.60;;
4202;SDS011;2115;51.038;7.006;2023-04-25T13:57:33;12.07;;;3.00;;
4202;SDS011;2115;51.038;7.006;2023-04-25T14:02:28;13.70;;;3.13;;
4202;SDS011;2115;51.038;7.006;2023-04-25T14:04:53;5.53;;;1.70;;
4202;SDS011;2115;51.038;7.006;2023-04-25T14:07:19;11.47;;;2.60;;
4202;SDS011;2115;51.038;7.006;2023-04-25T14:09:45;8.90;;;2.00;;
4202;SDS011;2115;51.038;7.006;2023-04-25T14:12:11;4.97;;;1.90;;
4202;SDS011;2115;51.038;7.006;2023-04-25T14:14:36;7.73;;;2.20;;
4202;SDS011;2115;51.038;7.006;2023-04-25T14:17:02;13.33;;;2.70;;
4202;SDS011;2115;51.038;7.006;2023-04-25T14:19:28;6.07;;;1.70;;
4202;SDS011;2115;51.038;7.006;2023-04-25T14:21:54;9.93;;;2.40;;
4202;SDS011;2115;51.038;7.006;2023-04-25T14:24:19;9.63;;;2.63;;
4202;SDS011;2115;51.038;7.006;2023-04-25T14:26:45;9.50;;;2.10;;
4202;SDS011;2115;51.038;7.006;2023-04-25T14:29:10;8.73;;;1.80;;
4202;SDS011;2115;51.038;7.006;2023-04-25T14:31:37;6.17;;;2.03;;
4202;SDS011;2115;51.038;7.006;2023-04-25T14:34:03;6.17;;;1.80;;
4202;SDS011;2115;51.038;7.006;2023-04-25T14:36:29;5.73;;;1.50;;
4202;SDS011;2115;51.038;7.006;2023-04-25T14:38:55;3.80;;;0.83;;
4202;SDS011;2115;51.038;7.006;2023-04-25T14:41:21;7.33;;;1.60;;
4202;SDS011;2115;51.038;7.006;2023-04-25T14:43:48;4.77;;;1.00;;
4202;SDS011;2115;51.038;7.006;2023-04-25T14:46:13;7.20;;;1.87;;
4202;SDS011;2115;51.038;7.006;2023-04-25T14:48:38;7.20;;;1.47;;
4202;SDS011;2115;51.038;7.006;2023-04-25T14:51:04;14.17;;;2.40;;
4202;SDS011;2115;51.038;7.006;2023-04-25T14:53:30;10.83;;;1.70;;
4202;SDS011;2115;51.038;7.006;2023-04-25T14:55:56;12.60;;;2.63;;
4202;SDS011;2115;51.038;7.006;2023-04-25T14:58:23;4.60;;;1.43;;
4202;SDS011;2115;51.038;7.006;2023-04-25T15:00:48;7.87;;;1.73;;
4202;SDS011;2115;51.038;7.006;2023-04-25T15:03:14;8.73;;;1.67;;
4202;SDS011;2115;51.038;7.006;2023-04-25T15:05:41;4.57;;;1.10;;
4202;SDS011;2115;51.038;7.006;2023-04-25T15:08:07;20.13;;;2.00;;
4202;SDS011;2115;51.038;7.006;2023-04-25T15:10:32;6.83;;;1.63;;
4202;SDS011;2115;51.038;7.006;2023-04-25T15:12:58;5.73;;;1.70;;
4202;SDS011;2115;51.038;7.006;2023-04-25T15:15:23;7.73;;;2.00;;
4202;SDS011;2115;51.038;7.006;2023-04-25T15:17:49;10.23;;;2.47;;